createdAt,value
2022-11-28T00:01:44.480Z,66.24
2022-11-28T00:04:13.598Z,66.06
2022-11-28T00:06:49.042Z,65.75
2022-11-28T00:09:21.349Z,65.62
2022-11-28T00:11:49.680Z,65.16
2022-11-28T00:14:19.804Z,63.82
2022-11-28T00:16:47.514Z,64.79
2022-11-28T00:19:15.591Z,64.65
2022-11-28T00:21:47.245Z,65.29
2022-11-28T00:24:15.038Z,66.00
2022-11-28T00:26:43.123Z,65.74
2022-11-28T00:29:11.642Z,65.21
2022-11-28T00:31:43.159Z,65.30
2022-11-28T00:34:13.776Z,65.82
2022-11-28T00:36:44.848Z,65.22
2022-11-28T00:39:13.588Z,65.71
2022-11-28T00:41:44.102Z,65.98
2022-11-28T00:44:12.864Z,65.91
2022-11-28T00:46:41.386Z,66.11
2022-11-28T00:49:09.514Z,66.85
2022-11-28T00:51:38.553Z,66.54
2022-11-28T00:54:07.662Z,66.46
2022-11-28T00:56:38.505Z,65.94
2022-11-28T00:59:07.316Z,66.48
2022-11-28T01:01:43.921Z,66.26
2022-11-28T01:04:14.386Z,66.10
2022-11-28T01:06:46.730Z,66.44
2022-11-28T01:09:17.305Z,66.44
2022-11-28T01:11:46.072Z,67.02
2022-11-28T01:14:14.220Z,65.72
2022-11-28T01:16:42.421Z,66.28
2022-11-28T01:19:10.717Z,66.97
2022-11-28T01:21:38.560Z,66.20
2022-11-28T01:24:06.537Z,66.29
2022-11-28T01:26:34.766Z,66.55
2022-11-28T01:29:02.599Z,67.83
2022-11-28T01:31:31.167Z,68.16
2022-11-28T01:33:59.722Z,67.99
2022-11-28T01:36:29.799Z,67.77
2022-11-28T01:38:58.548Z,66.42
2022-11-28T01:41:27.627Z,66.26
2022-11-28T01:44:09.314Z,66.83
2022-11-28T01:46:37.426Z,67.00
2022-11-28T01:49:08.681Z,66.80
2022-11-28T01:51:45.410Z,66.91
2022-11-28T01:54:13.603Z,67.13
2022-11-28T01:56:51.338Z,67.34
2022-11-28T01:59:19.884Z,67.46
2022-11-28T02:01:48.274Z,66.99
2022-11-28T02:06:54.986Z,66.75
2022-11-28T02:09:31.369Z,66.80
2022-11-28T02:12:46.768Z,66.75
2022-11-28T02:16:05.538Z,66.77
2022-11-28T02:19:16.568Z,67.39
2022-11-28T02:22:14.833Z,67.13
2022-11-28T02:24:57.396Z,67.02
2022-11-28T02:28:24.915Z,66.56
2022-11-28T02:31:33.577Z,66.55
2022-11-28T02:34:50.439Z,66.09
2022-11-28T02:37:55.063Z,66.01
2022-11-28T02:40:54.670Z,65.83
2022-11-28T02:44:12.553Z,65.72
2022-11-28T02:46:58.303Z,64.96
2022-11-28T02:49:29.994Z,64.67
2022-11-28T02:52:05.707Z,65.05
2022-11-28T02:54:33.684Z,65.54
2022-11-28T02:57:03.740Z,64.88
2022-11-28T02:59:37.644Z,65.07
2022-11-28T03:02:14.084Z,64.76
2022-11-28T03:04:56.622Z,64.98
2022-11-28T03:08:02.993Z,65.14
2022-11-28T03:15:01.075Z,65.42
2022-11-28T03:17:44.383Z,65.55
2022-11-28T03:20:26.452Z,65.68
2022-11-28T03:23:21.775Z,65.37
2022-11-28T03:26:11.948Z,65.88
2022-11-28T03:29:03.750Z,65.68
2022-11-28T03:31:51.778Z,66.03
2022-11-28T03:34:46.614Z,66.32
2022-11-28T03:38:07.318Z,66.35
2022-11-28T03:40:40.589Z,66.62
2022-11-28T03:43:16.026Z,66.34
2022-11-28T03:45:49.740Z,66.47
2022-11-28T03:48:42.293Z,66.45
2022-11-28T03:51:27.753Z,66.33
2022-11-28T03:54:04.767Z,66.82
2022-11-28T03:57:00.276Z,66.68
2022-11-28T03:59:51.967Z,66.63
2022-11-28T04:02:26.341Z,67.05
2022-11-28T04:05:22.558Z,67.00
2022-11-28T04:08:13.465Z,66.57
2022-11-28T04:11:14.751Z,66.35
2022-11-28T04:13:59.332Z,67.61
2022-11-28T04:17:13.250Z,68.37
2022-11-28T04:19:51.044Z,67.65
2022-11-28T04:22:34.699Z,68.29
2022-11-28T04:25:06.486Z,68.49
2022-11-28T04:27:38.924Z,68.27
2022-11-28T04:30:08.193Z,69.08
2022-11-28T04:32:39.884Z,69.04
2022-11-28T04:35:11.716Z,68.43
2022-11-28T04:37:41.085Z,66.96
2022-11-28T04:45:38.742Z,67.02
2022-11-28T04:48:07.838Z,66.98
2022-11-28T04:51:00.705Z,66.70
2022-11-28T04:53:35.962Z,66.83
2022-11-28T04:56:09.393Z,66.97
2022-11-28T04:58:41.162Z,68.01
2022-11-28T05:01:10.716Z,67.65
2022-11-28T05:03:42.559Z,66.84
2022-11-28T05:06:11.057Z,66.69
2022-11-28T05:08:40.623Z,67.79
2022-11-28T05:11:08.819Z,66.89
2022-11-28T05:13:37.412Z,66.76
2022-11-28T05:16:07.555Z,66.37
2022-11-28T05:18:36.822Z,66.71
2022-11-28T05:21:08.991Z,67.10
2022-11-28T05:23:40.659Z,66.43
2022-11-28T05:26:20.448Z,66.18
2022-11-28T05:28:50.946Z,66.52
2022-11-28T05:31:20.852Z,65.97
2022-11-28T05:33:50.112Z,66.08
2022-11-28T05:36:18.959Z,66.00
2022-11-28T05:39:19.871Z,65.67
2022-11-28T05:42:07.803Z,66.30
2022-11-28T05:44:37.199Z,66.08
2022-11-28T05:47:05.446Z,66.06
2022-11-28T05:49:33.509Z,66.05
2022-11-28T05:52:03.772Z,65.74
2022-11-28T05:54:32.212Z,65.66
2022-11-28T05:57:04.622Z,67.34
2022-11-28T05:59:33.850Z,66.97
2022-11-28T06:02:06.950Z,66.47
2022-11-28T06:04:38.302Z,66.72
2022-11-28T06:07:06.393Z,66.18
2022-11-28T06:09:38.667Z,66.61
2022-11-28T06:12:13.756Z,66.75
2022-11-28T06:14:43.678Z,67.28
2022-11-28T06:17:14.974Z,67.98
2022-11-28T06:19:43.315Z,66.80
2022-11-28T06:22:20.787Z,66.75
2022-11-28T06:24:48.700Z,65.83
2022-11-28T06:27:17.979Z,65.80
2022-11-28T06:29:49.805Z,66.37
2022-11-28T06:32:22.035Z,66.07
2022-11-28T06:34:49.969Z,66.27
2022-11-28T06:37:26.679Z,65.92
2022-11-28T06:39:59.302Z,65.70
2022-11-28T06:42:39.690Z,66.21
2022-11-28T06:45:08.884Z,65.96
2022-11-28T06:47:37.139Z,65.99
2022-11-28T06:50:05.687Z,66.56
2022-11-28T06:52:33.714Z,66.26
2022-11-28T06:55:19.839Z,66.48
2022-11-28T06:58:02.886Z,66.43
2022-11-28T07:00:54.974Z,66.49
2022-11-28T07:03:39.994Z,66.66
2022-11-28T07:06:13.764Z,66.20
2022-11-28T07:11:42.418Z,65.71
2022-11-28T07:14:25.112Z,65.98
2022-11-28T07:17:08.093Z,66.04
2022-11-28T07:20:05.987Z,66.13
2022-11-28T07:22:49.849Z,65.87
2022-11-28T07:25:36.257Z,65.69
2022-11-28T07:28:32.003Z,65.96
2022-11-28T07:31:20.093Z,66.12
2022-11-28T07:34:12.301Z,66.06
2022-11-28T07:36:54.271Z,66.67
2022-11-28T07:39:37.895Z,66.33
2022-11-28T07:42:30.065Z,66.43
2022-11-28T07:45:12.870Z,66.42
2022-11-28T07:48:04.843Z,65.79
2022-11-28T07:50:50.713Z,65.84
2022-11-28T07:53:45.575Z,66.54
2022-11-28T07:56:57.225Z,67.26
2022-11-28T07:59:24.314Z,67.84
2022-11-28T08:02:07.655Z,67.76
2022-11-28T08:04:54.974Z,68.27
2022-11-28T08:07:34.253Z,68.74
2022-11-28T08:10:18.123Z,67.94
2022-11-28T08:13:10.211Z,67.56
2022-11-28T08:15:50.910Z,67.29
2022-11-28T08:18:49.671Z,66.82
2022-11-28T08:21:34.549Z,66.93
2022-11-28T08:24:19.236Z,66.98
2022-11-28T08:27:13.747Z,66.72
2022-11-28T08:29:56.700Z,66.63
2022-11-28T08:32:40.854Z,66.37
2022-11-28T08:35:35.259Z,66.50
2022-11-28T08:38:18.163Z,65.13
2022-11-28T08:41:13.262Z,65.25
2022-11-28T08:43:57.307Z,65.56
2022-11-28T08:46:39.782Z,65.01
2022-11-28T08:49:22.091Z,64.18
2022-11-28T08:52:19.886Z,64.55
2022-11-28T08:54:59.804Z,64.52
2022-11-28T08:57:41.703Z,64.29
2022-11-28T09:00:33.890Z,64.98
2022-11-28T09:03:22.226Z,64.81
2022-11-28T09:06:16.889Z,64.81
2022-11-28T09:08:56.031Z,66.80
2022-11-28T09:11:39.734Z,65.04
2022-11-28T09:14:22.815Z,63.86
2022-11-28T09:17:16.115Z,64.34
2022-11-28T09:19:58.856Z,63.94
2022-11-28T09:22:42.732Z,63.92
2022-11-28T09:25:41.271Z,63.04
2022-11-28T09:28:21.184Z,62.58
2022-11-28T09:31:20.648Z,63.49
2022-11-28T09:34:05.723Z,63.44
2022-11-28T09:36:50.187Z,63.51
2022-11-28T09:40:11.324Z,63.31
2022-11-28T09:42:44.099Z,63.78
2022-11-28T09:45:27.961Z,63.18
2022-11-28T09:48:23.227Z,62.68
2022-11-28T09:51:35.770Z,62.49
2022-11-28T09:54:41.127Z,63.64
2022-11-28T09:57:46.495Z,62.64
2022-11-28T10:00:38.638Z,61.02
2022-11-28T10:03:43.022Z,61.98
2022-11-28T10:06:48.217Z,61.09
2022-11-28T10:09:34.089Z,60.83
2022-11-28T10:12:44.666Z,61.55
2022-11-28T10:16:09.648Z,61.76
2022-11-28T10:18:59.163Z,62.35
2022-11-28T10:21:59.393Z,61.30
2022-11-28T10:24:41.976Z,61.08
2022-11-28T10:27:37.527Z,60.11
2022-11-28T10:30:22.854Z,61.38
2022-11-28T10:33:41.778Z,60.29
2022-11-28T10:37:02.827Z,59.99
2022-11-28T10:39:46.572Z,59.73
2022-11-28T10:47:17.236Z,59.27
2022-11-28T10:50:15.672Z,60.11
2022-11-28T10:53:00.948Z,60.78
2022-11-28T10:56:11.741Z,60.10
2022-11-28T10:59:09.863Z,59.53
2022-11-28T11:01:53.772Z,60.20
2022-11-28T11:04:37.505Z,60.11
2022-11-28T11:07:31.436Z,60.90
2022-11-28T11:10:21.626Z,59.32
2022-11-28T11:13:21.656Z,59.29
2022-11-28T11:20:38.997Z,58.53
2022-11-28T11:23:23.084Z,58.55
2022-11-28T11:26:10.668Z,59.09
2022-11-28T11:28:57.172Z,59.68
2022-11-28T11:31:44.884Z,58.77
2022-11-28T11:34:28.630Z,58.11
2022-11-28T11:37:37.845Z,58.83
2022-11-28T11:40:23.426Z,57.65
2022-11-28T11:43:23.765Z,58.13
2022-11-28T11:46:23.652Z,58.28
2022-11-28T11:49:06.216Z,58.43
2022-11-28T11:52:28.226Z,58.38
2022-11-28T11:55:12.395Z,59.43
2022-11-28T11:58:06.913Z,59.11
2022-11-28T12:00:58.835Z,58.42
2022-11-28T12:08:18.994Z,59.80
2022-11-28T12:11:28.722Z,58.10
2022-11-28T12:18:36.006Z,58.46
2022-11-28T12:21:36.916Z,59.55
2022-11-28T12:24:29.958Z,57.06
2022-11-28T12:27:42.833Z,59.08
2022-11-28T12:30:25.259Z,59.18
2022-11-28T12:33:29.547Z,59.37
2022-11-28T12:36:21.393Z,57.78
2022-11-28T12:39:37.999Z,57.82
2022-11-28T12:42:35.611Z,58.96
2022-11-28T12:45:43.639Z,57.34
2022-11-28T12:49:03.132Z,58.00
2022-11-28T12:52:24.532Z,58.09
2022-11-28T12:55:25.759Z,58.63
2022-11-28T12:58:26.788Z,58.76
2022-11-28T13:01:29.767Z,57.32
2022-11-28T13:04:31.956Z,58.56
2022-11-28T13:07:30.163Z,57.09
2022-11-28T13:10:32.247Z,57.65
2022-11-28T13:13:32.241Z,57.68
2022-11-28T13:16:44.237Z,58.61
2022-11-28T13:19:42.915Z,57.66
2022-11-28T13:22:31.651Z,58.03
2022-11-28T13:25:44.823Z,59.32
2022-11-28T13:28:45.657Z,58.82
2022-11-28T13:31:40.795Z,58.79
2022-11-28T13:34:38.749Z,58.88
2022-11-28T13:40:35.423Z,58.97
2022-11-28T13:43:44.123Z,58.84
2022-11-28T13:46:28.588Z,59.01
2022-11-28T13:49:25.989Z,57.78
2022-11-28T13:52:26.327Z,59.53
2022-11-28T13:57:41.699Z,59.83
2022-11-28T14:00:29.527Z,60.37
2022-11-28T14:03:00.188Z,59.60
2022-11-28T14:05:39.026Z,59.78
2022-11-28T14:14:29.646Z,61.14
2022-11-28T14:17:32.010Z,60.23
2022-11-28T14:20:20.646Z,59.93
2022-11-28T14:23:04.438Z,60.75
2022-11-28T14:25:42.777Z,61.31
2022-11-28T14:28:26.979Z,60.60
2022-11-28T14:31:05.630Z,61.05
2022-11-28T14:33:42.625Z,61.21
2022-11-28T14:39:34.395Z,61.51
2022-11-28T14:42:30.587Z,61.56
2022-11-28T14:47:46.490Z,61.30
2022-11-28T14:53:41.932Z,60.47
2022-11-28T14:59:04.565Z,61.02
2022-11-28T15:01:46.003Z,61.03
2022-11-28T15:04:42.805Z,60.98
2022-11-28T15:10:20.268Z,61.93
2022-11-28T15:13:04.884Z,61.77
2022-11-28T15:15:34.560Z,61.53
2022-11-28T15:18:05.590Z,61.84
2022-11-28T15:20:48.517Z,61.18
2022-11-28T15:23:28.301Z,62.02
2022-11-28T15:26:00.990Z,62.28
2022-11-28T15:28:42.636Z,62.09
2022-11-28T15:31:24.596Z,61.82
2022-11-28T15:34:00.885Z,62.62
2022-11-28T15:36:38.286Z,61.93
2022-11-28T15:42:04.579Z,63.65
2022-11-28T15:44:48.000Z,62.60
2022-11-28T15:47:32.631Z,61.81
2022-11-28T15:50:12.620Z,61.31
2022-11-28T15:52:59.180Z,61.95
2022-11-28T15:55:32.623Z,62.39
2022-11-28T16:01:17.161Z,62.26
2022-11-28T16:03:59.579Z,62.84
2022-11-28T16:06:30.880Z,63.34
2022-11-28T16:09:19.831Z,62.71
2022-11-28T16:14:34.749Z,61.82
2022-11-28T16:17:19.094Z,62.86
2022-11-28T16:19:52.618Z,62.17
2022-11-28T16:24:57.505Z,63.28
2022-11-28T16:27:36.920Z,62.49
2022-11-28T16:30:23.849Z,64.94
2022-11-28T16:32:57.636Z,63.94
2022-11-28T16:36:11.425Z,64.35
2022-11-28T16:38:54.158Z,63.94
2022-11-28T16:42:01.536Z,65.50
2022-11-28T16:44:45.755Z,65.49
2022-11-28T16:47:58.037Z,63.72
2022-11-28T16:51:02.624Z,66.56
2022-11-28T16:53:46.154Z,66.47
2022-11-28T16:56:33.727Z,65.74
2022-11-28T16:59:08.652Z,65.46
2022-11-28T17:01:42.671Z,64.68
2022-11-28T17:04:35.609Z,65.08
2022-11-28T17:07:24.309Z,64.34
2022-11-28T17:10:02.179Z,63.79
2022-11-28T17:16:01.713Z,64.19
2022-11-28T17:18:36.188Z,63.33
2022-11-28T17:21:47.424Z,64.97
2022-11-28T17:24:36.809Z,64.15
2022-11-28T17:27:36.785Z,64.79
2022-11-28T17:30:26.529Z,64.09
2022-11-28T17:35:41.588Z,65.70
2022-11-28T17:38:18.392Z,65.95
2022-11-28T17:40:57.109Z,64.88
2022-11-28T17:46:15.632Z,65.53
2022-11-28T17:51:32.777Z,66.32
2022-11-28T17:54:20.725Z,65.26
2022-11-28T17:56:51.065Z,65.42
2022-11-28T17:59:21.534Z,65.08
2022-11-28T18:01:57.624Z,65.31
2022-11-28T18:04:28.651Z,64.03
2022-11-28T18:07:00.482Z,64.21
2022-11-28T18:09:31.625Z,65.25
2022-11-28T18:14:46.559Z,64.83
2022-11-28T18:17:25.528Z,65.61
2022-11-28T18:19:57.723Z,64.65
2022-11-28T18:22:28.157Z,65.48
2022-11-28T18:25:07.626Z,64.67
2022-11-28T18:27:44.559Z,64.92
2022-11-28T18:30:15.996Z,65.79
2022-11-28T18:32:55.733Z,66.45
2022-11-28T18:38:09.049Z,66.11
2022-11-28T18:40:47.328Z,65.89
2022-11-28T18:43:30.564Z,66.32
2022-11-28T18:46:10.406Z,66.98
2022-11-28T18:48:44.647Z,65.57
2022-11-28T18:53:56.568Z,65.37
2022-11-28T18:56:31.698Z,65.65
2022-11-28T18:59:20.662Z,65.41
2022-11-28T19:01:58.043Z,64.52
2022-11-28T19:07:26.701Z,65.43
2022-11-28T19:15:46.154Z,66.52
2022-11-28T19:18:15.189Z,65.73
2022-11-28T19:20:55.945Z,65.04
2022-11-28T19:23:44.772Z,66.15
2022-11-28T19:26:56.772Z,66.79
2022-11-28T19:32:33.644Z,65.90
2022-11-28T19:35:09.572Z,66.62
2022-11-28T19:38:03.874Z,66.41
2022-11-28T19:40:56.183Z,65.98
2022-11-28T19:43:59.730Z,66.50
2022-11-28T19:46:41.913Z,66.63
2022-11-28T19:49:30.090Z,66.59
2022-11-28T19:52:25.522Z,67.68
2022-11-28T19:55:15.513Z,67.85
2022-11-28T19:58:03.696Z,67.97
2022-11-28T20:00:50.823Z,67.92
2022-11-28T20:03:36.494Z,67.35
2022-11-28T20:06:24.356Z,68.36
2022-11-28T20:09:15.016Z,68.08
2022-11-28T20:12:02.560Z,68.34
2022-11-28T20:14:46.689Z,66.76
2022-11-28T20:17:48.473Z,68.17
2022-11-28T20:20:37.256Z,68.10
2022-11-28T20:23:07.614Z,68.04
2022-11-28T20:25:49.727Z,67.90
2022-11-28T20:28:44.861Z,67.34
2022-11-28T20:31:27.832Z,67.21
2022-11-28T20:34:25.636Z,66.71
2022-11-28T20:36:54.401Z,67.94
2022-11-28T20:39:26.451Z,69.36
2022-11-28T20:42:02.505Z,69.54
2022-11-28T20:44:36.693Z,69.56
2022-11-28T20:47:11.108Z,68.24
2022-11-28T20:49:39.991Z,67.37
2022-11-28T20:52:15.813Z,68.73
2022-11-28T20:54:46.718Z,67.93
2022-11-28T20:57:21.786Z,69.82
2022-11-28T21:00:09.614Z,67.77
2022-11-28T21:02:37.904Z,68.66
2022-11-28T21:05:06.183Z,68.52
2022-11-28T21:07:34.531Z,68.76
2022-11-28T21:10:03.977Z,69.77
2022-11-28T21:12:47.607Z,70.09
2022-11-28T21:15:15.697Z,68.75
2022-11-28T21:17:43.318Z,69.51
2022-11-28T21:20:12.150Z,70.89
2022-11-28T21:22:42.347Z,70.21
2022-11-28T21:25:11.517Z,69.33
2022-11-28T21:27:48.034Z,68.70
2022-11-28T21:30:18.164Z,68.41
2022-11-28T21:32:48.480Z,69.47
2022-11-28T21:35:25.768Z,70.29
2022-11-28T21:38:13.511Z,70.12
2022-11-28T21:40:54.326Z,69.35
2022-11-28T21:43:23.702Z,70.02
2022-11-28T21:46:01.372Z,68.98
2022-11-28T21:48:32.424Z,68.54
2022-11-28T21:51:03.916Z,69.83
2022-11-28T21:53:34.610Z,67.82
2022-11-28T21:56:05.508Z,68.85
2022-11-28T21:58:34.803Z,68.99
2022-11-28T22:01:10.078Z,69.40
2022-11-28T22:03:41.070Z,68.76
2022-11-28T22:06:22.941Z,68.97
2022-11-28T22:08:52.437Z,67.96
2022-11-28T22:11:22.527Z,66.72
2022-11-28T22:13:52.979Z,66.18
2022-11-28T22:16:44.892Z,67.03
2022-11-28T22:19:17.226Z,68.51
2022-11-28T22:21:52.094Z,67.36
2022-11-28T22:24:23.621Z,68.35
2022-11-28T22:26:52.948Z,67.81
2022-11-28T22:29:26.689Z,68.19
2022-11-28T22:31:56.460Z,68.44
2022-11-28T22:34:25.573Z,67.73
2022-11-28T22:36:53.687Z,68.79
2022-11-28T22:39:21.965Z,68.88
2022-11-28T22:42:00.504Z,68.44
2022-11-28T22:44:35.241Z,68.25
2022-11-28T22:47:04.773Z,70.44
2022-11-28T22:49:33.737Z,69.39
2022-11-28T22:52:02.523Z,69.12
2022-11-28T22:54:31.764Z,69.43
2022-11-28T22:57:00.833Z,69.13
2022-11-28T22:59:33.655Z,69.09
2022-11-28T23:02:04.728Z,68.62
2022-11-28T23:04:33.170Z,68.13
2022-11-28T23:07:01.261Z,68.66
2022-11-28T23:09:30.781Z,69.59
2022-11-28T23:12:01.418Z,68.82
2022-11-28T23:14:30.464Z,69.59
2022-11-28T23:21:38.931Z,67.94
2022-11-28T23:24:30.512Z,69.29
2022-11-28T23:27:12.895Z,70.21
2022-11-28T23:30:06.170Z,69.45
2022-11-28T23:32:45.828Z,69.38
2022-11-28T23:35:38.992Z,69.59
2022-11-28T23:38:30.433Z,72.28
2022-11-28T23:41:22.341Z,72.05
2022-11-28T23:44:05.600Z,72.70
2022-11-28T23:46:48.312Z,71.55
2022-11-28T23:49:39.706Z,73.22
2022-11-28T23:52:19.716Z,73.58
2022-11-28T23:55:10.948Z,73.31
2022-11-28T23:57:39.936Z,71.88
